Terminal Aerodrome Forecast
Issued by NWS Shreveport, LA

Home | Current Version | Previous Version | Text Only | Print | Product List | Glossary On
Versions: 1 2 3 4 5 6 7 8 9 10 11 12 13 14 15
000
FTUS44 KSHV 211738
TAFGGG
TAF
KGGG 211738Z 2118/2218 17010KT P6SM VCTS SCT040CB SCT250
     FM220100 14005KT P6SM FEW250
     FM220800 17004KT 6SM BR BKN015
     FM221500 17007KT P6SM SCT040=

USA.gov is the U.S. government's official web portal to all federal, state and local government web resources and services.